Time;durP1;ratioP1;P1;durP2;ratioP2;P2;SDS_P1;SDS_P2;PMS_P1;PMS_P2;Temp;Humidity;BMP_temperature;BMP_pressure;BME280_temperature;BME280_humidity;BME280_pressure;Samples;Min_cycle;Max_cycle;Signal;HPM_P1;HPM_P2
2022/01/08 00:00:08;;;;;;;10.63;6.23;;;4.20;99.90;;;;;;5071357;28;20494;-47
2022/01/08 00:02:35;;;;;;;10.50;5.40;;;4.20;99.90;;;;;;5066104;28;21036;-50
2022/01/08 00:05:02;;;;;;;8.57;5.50;;;4.20;99.90;;;;;;5071235;28;20529;-47
2022/01/08 00:07:29;;;;;;;8.37;4.53;;;4.20;99.90;;;;;;5092038;27;20480;-48
2022/01/08 00:09:55;;;;;;;4.77;2.93;;;4.20;99.90;;;;;;5069203;28;20534;-48
2022/01/08 00:12:23;;;;;;;7.53;4.47;;;4.30;99.90;;;;;;5062964;28;20569;-48
2022/01/08 00:14:50;;;;;;;4.57;3.67;;;4.30;99.90;;;;;;5064815;28;20475;-48
2022/01/08 00:17:19;;;;;;;6.50;2.20;;;4.20;99.90;;;;;;5088658;27;20893;-47
2022/01/08 00:19:46;;;;;;;6.97;4.60;;;4.20;99.90;;;;;;5067777;28;20507;-48
2022/01/08 00:22:12;;;;;;;5.13;2.50;;;4.10;99.90;;;;;;5069384;28;20483;-47
2022/01/08 00:24:39;;;;;;;6.77;4.20;;;4.10;99.90;;;;;;5059922;27;20488;-47
2022/01/08 00:27:06;;;;;;;7.23;3.90;;;4.00;99.90;;;;;;5089164;27;20487;-47
2022/01/08 00:29:32;;;;;;;8.10;4.27;;;3.90;99.90;;;;;;5070087;28;20480;-47
2022/01/08 00:31:59;;;;;;;5.70;4.67;;;3.80;99.90;;;;;;5063885;28;20532;-46
2022/01/08 00:34:27;;;;;;;6.07;3.50;;;3.60;99.90;;;;;;5067775;28;20480;-47
2022/01/08 00:36:54;;;;;;;4.90;3.63;;;3.60;99.90;;;;;;5069722;28;20485;-46
2022/01/08 00:39:20;;;;;;;3.80;2.03;;;3.60;99.90;;;;;;5065152;27;20555;-47
2022/01/08 00:41:47;;;;;;;7.50;3.27;;;3.70;99.90;;;;;;5067024;28;20491;-47
2022/01/08 00:44:16;;;;;;;4.20;3.63;;;3.80;99.90;;;;;;5092553;27;21032;-46
2022/01/08 00:46:42;;;;;;;9.90;2.80;;;3.60;99.90;;;;;;5066107;28;20609;-47
2022/01/08 00:49:09;;;;;;;5.03;3.00;;;3.60;99.90;;;;;;5070306;28;20817;-47
2022/01/08 00:51:37;;;;;;;3.00;1.53;;;3.70;99.90;;;;;;5065945;28;20496;-48
2022/01/08 00:54:04;;;;;;;6.33;3.70;;;3.80;99.90;;;;;;5068689;28;20959;-47
2022/01/08 00:56:31;;;;;;;4.23;3.53;;;3.80;99.90;;;;;;5068251;28;20540;-48
2022/01/08 00:58:57;;;;;;;7.67;2.80;;;3.80;99.90;;;;;;5076940;27;20559;-47
2022/01/08 01:01:24;;;;;;;3.17;2.07;;;4.00;99.90;;;;;;5078720;27;20528;-47
2022/01/08 01:03:51;;;;;;;3.00;2.20;;;3.90;99.90;;;;;;5062455;28;20478;-47
2022/01/08 01:06:17;;;;;;;2.20;1.47;;;4.00;99.90;;;;;;5080465;27;20493;-47
2022/01/08 01:08:45;;;;;;;3.90;1.97;;;4.10;99.90;;;;;;5061929;27;20506;-48
2022/01/08 01:11:12;;;;;;;4.63;2.80;;;4.10;99.90;;;;;;5093245;27;20476;-47
2022/01/08 01:13:39;;;;;;;7.20;2.27;;;4.10;99.90;;;;;;5064818;28;20506;-47
2022/01/08 01:16:06;;;;;;;3.43;1.90;;;4.10;99.90;;;;;;5065527;28;20475;-48
2022/01/08 01:18:33;;;;;;;5.10;1.57;;;4.10;99.90;;;;;;5071055;28;20868;-47
2022/01/08 01:21:01;;;;;;;2.80;2.40;;;4.20;99.90;;;;;;5066940;27;20575;-48
2022/01/08 01:23:32;;;;;;;2.37;1.63;;;4.20;99.90;;;;;;5105766;27;20483;-47
2022/01/08 01:26:04;;;;;;;4.03;1.30;;;4.20;99.90;;;;;;5074743;28;20997;-48
2022/01/08 01:28:41;;;;;;;3.20;1.90;;;4.30;99.90;;;;;;5073079;28;20488;-48
2022/01/08 01:47:34;;;;;;;1.80;0.83;;;4.20;99.90;;;;;;5080364;28;20523;-48
2022/01/08 01:50:02;;;;;;;1.40;0.77;;;4.20;99.90;;;;;;5080896;28;20467;-47
2022/01/08 01:52:30;;;;;;;1.50;0.70;;;4.20;99.90;;;;;;5075994;28;20480;-48
2022/01/08 01:54:57;;;;;;;1.40;0.80;;;4.20;99.90;;;;;;5076596;28;20498;-48
2022/01/08 01:57:26;;;;;;;1.40;1.00;;;4.20;99.90;;;;;;5077640;28;20481;-48
2022/01/08 01:59:53;;;;;;;1.50;0.90;;;4.20;99.90;;;;;;5054044;27;20490;-48
2022/01/08 02:02:20;;;;;;;1.47;0.70;;;4.20;99.90;;;;;;5094186;27;20480;-48
2022/01/08 02:04:46;;;;;;;1.60;1.10;;;4.20;99.90;;;;;;5077449;28;20479;-48
2022/01/08 02:07:13;;;;;;;1.30;0.70;;;4.30;99.90;;;;;;5071598;28;21255;-47
2022/01/08 02:09:40;;;;;;;1.30;0.60;;;4.40;99.90;;;;;;5079676;28;20471;-48
2022/01/08 02:12:10;;;;;;;1.77;1.40;;;4.40;99.90;;;;;;5077945;28;20550;-47
2022/01/08 02:14:39;;;;;;;1.60;0.90;;;4.40;99.90;;;;;;5075112;28;20486;-49
2022/01/08 02:17:07;;;;;;;2.23;0.90;;;4.40;99.90;;;;;;5075705;28;20455;-49
2022/01/08 02:19:35;;;;;;;1.50;0.97;;;4.40;99.90;;;;;;5080288;28;20476;-48
2022/01/08 02:22:05;;;;;;;1.50;1.00;;;4.40;99.90;;;;;;5079988;28;20496;-48
2022/01/08 02:24:32;;;;;;;1.50;0.90;;;4.40;99.90;;;;;;5077170;28;20491;-47
2022/01/08 02:26:59;;;;;;;1.63;0.80;;;4.50;99.90;;;;;;5079761;27;21089;-48
2022/01/08 02:29:27;;;;;;;1.90;1.57;;;4.50;99.90;;;;;;5096588;27;20499;-48
2022/01/08 02:31:55;;;;;;;1.80;1.50;;;4.50;99.90;;;;;;5066458;28;20486;-48
2022/01/08 02:34:22;;;;;;;1.60;1.20;;;4.50;99.90;;;;;;5078238;28;20496;-48
2022/01/08 02:36:49;;;;;;;2.53;1.37;;;4.50;99.90;;;;;;5069281;28;21362;-49
2022/01/08 02:39:17;;;;;;;4.23;2.90;;;4.50;99.90;;;;;;5084685;28;20482;-48
2022/01/08 02:41:44;;;;;;;1.57;1.20;;;4.40;99.90;;;;;;5079008;28;20535;-48
2022/01/08 02:44:10;;;;;;;1.83;1.00;;;4.50;99.90;;;;;;5077109;28;20479;-48
2022/01/08 02:46:39;;;;;;;1.60;1.20;;;4.50;99.90;;;;;;5078121;28;20535;-49
2022/01/08 02:49:08;;;;;;;1.90;1.17;;;4.50;99.90;;;;;;5078849;28;21312;-49
2022/01/08 02:51:35;;;;;;;2.87;1.77;;;4.50;99.90;;;;;;5071678;28;20524;-49
2022/01/08 02:54:03;;;;;;;1.67;1.40;;;4.50;99.90;;;;;;5076472;28;20482;-49
2022/01/08 02:56:31;;;;;;;2.70;1.87;;;4.50;99.90;;;;;;5076363;28;20532;-48
2022/01/08 02:58:58;;;;;;;2.43;1.70;;;4.50;99.90;;;;;;5075406;28;20881;-52
2022/01/08 03:01:25;;;;;;;2.77;2.00;;;4.60;99.90;;;;;;5079057;28;20524;-48
2022/01/08 03:03:56;;;;;;;1.80;1.43;;;4.70;99.90;;;;;;5069465;28;20544;-48
2022/01/08 03:06:22;;;;;;;3.87;1.47;;;4.70;99.90;;;;;;5090217;28;20989;-48
2022/01/08 03:08:49;;;;;;;1.80;1.40;;;4.70;99.90;;;;;;5079193;28;20487;-49
2022/01/08 03:11:16;;;;;;;2.07;1.63;;;4.70;99.90;;;;;;5083524;28;20492;-49
2022/01/08 03:13:44;;;;;;;5.80;1.60;;;4.70;99.90;;;;;;5075027;28;20587;-49
2022/01/08 03:16:11;;;;;;;3.50;1.50;;;4.70;99.90;;;;;;5081441;28;20479;-48
2022/01/08 03:18:38;;;;;;;2.73;1.63;;;4.80;99.90;;;;;;5079532;28;20982;-48
2022/01/08 03:21:13;;;;;;;2.27;1.23;;;4.80;99.90;;;;;;5077329;28;20494;-49
2022/01/08 03:23:47;;;;;;;1.60;1.13;;;4.70;99.90;;;;;;5082564;28;20490;-49
2022/01/08 03:26:14;;;;;;;1.40;0.67;;;4.70;99.90;;;;;;5081821;28;20480;-51
2022/01/08 03:28:40;;;;;;;1.87;0.87;;;4.50;99.90;;;;;;5087639;28;20525;-48
2022/01/08 03:31:09;;;;;;;1.30;0.60;;;4.50;99.90;;;;;;5078339;28;20541;-48
2022/01/08 03:33:35;;;;;;;1.50;0.80;;;4.50;99.90;;;;;;5083985;28;20481;-48
2022/01/08 03:36:02;;;;;;;1.70;1.00;;;4.50;99.90;;;;;;5077821;28;20977;-48
2022/01/08 03:38:29;;;;;;;1.50;0.90;;;4.50;99.90;;;;;;5080094;28;20487;-48
2022/01/08 03:40:56;;;;;;;1.60;1.20;;;4.50;99.90;;;;;;5088474;27;20867;-48
2022/01/08 03:43:23;;;;;;;1.57;0.70;;;4.40;99.90;;;;;;5089062;27;20523;-48
2022/01/08 03:45:50;;;;;;;1.80;1.00;;;4.40;99.90;;;;;;5084605;28;20474;-50
2022/01/08 03:48:27;;;;;;;1.53;1.00;;;4.40;99.90;;;;;;5073514;28;20534;-48
2022/01/08 03:50:54;;;;;;;1.63;0.90;;;4.30;99.90;;;;;;5069612;28;20474;-48
2022/01/08 03:53:21;;;;;;;1.80;1.00;;;4.30;99.90;;;;;;5076429;28;20494;-48
2022/01/08 03:55:48;;;;;;;1.60;0.70;;;4.30;99.90;;;;;;5073689;28;20497;-48
2022/01/08 03:58:15;;;;;;;1.30;0.70;;;4.30;99.90;;;;;;5078451;28;20486;-48
2022/01/08 04:00:41;;;;;;;1.80;0.77;;;4.20;99.90;;;;;;5082817;28;20540;-49
2022/01/08 04:03:08;;;;;;;1.30;0.50;;;4.20;99.90;;;;;;5075874;28;20481;-48
2022/01/08 04:05:36;;;;;;;1.60;0.60;;;4.20;99.90;;;;;;5082700;27;20560;-48
2022/01/08 04:08:03;;;;;;;1.40;0.60;;;4.10;99.90;;;;;;5071500;28;20560;-48
2022/01/08 04:10:30;;;;;;;1.30;0.60;;;4.10;99.90;;;;;;5086993;28;20557;-48
2022/01/08 04:13:03;;;;;;;1.30;0.73;;;4.10;99.90;;;;;;5077879;28;20468;-48
2022/01/08 04:15:37;;;;;;;1.40;0.70;;;4.20;99.90;;;;;;5073469;28;20566;-48
2022/01/08 04:18:05;;;;;;;1.43;0.70;;;4.20;99.90;;;;;;5098130;27;20480;-48
2022/01/08 04:20:35;;;;;;;1.40;0.70;;;4.30;99.90;;;;;;5083495;28;20536;-48
2022/01/08 04:23:03;;;;;;;1.60;0.77;;;4.30;99.90;;;;;;5072711;28;21321;-48
2022/01/08 04:25:31;;;;;;;1.40;0.70;;;4.30;99.90;;;;;;5093808;28;20488;-48
2022/01/08 04:27:57;;;;;;;1.40;0.70;;;4.30;99.90;;;;;;5081093;28;20467;-48
2022/01/08 04:30:24;;;;;;;1.53;0.70;;;4.30;99.90;;;;;;5077903;28;20588;-48
2022/01/08 04:32:51;;;;;;;1.30;0.60;;;4.20;99.90;;;;;;5079931;28;21028;-48
2022/01/08 04:35:18;;;;;;;2.90;0.87;;;4.30;99.80;;;;;;5080456;28;22030;-48
2022/01/08 04:37:44;;;;;;;5.43;0.80;;;4.30;99.90;;;;;;5081409;28;20612;-48
2022/01/08 04:40:13;;;;;;;1.30;0.67;;;4.30;99.80;;;;;;5080895;28;20488;-48
2022/01/08 04:42:40;;;;;;;2.73;0.70;;;4.20;99.50;;;;;;5085395;28;20505;-48
2022/01/08 04:45:07;;;;;;;1.40;0.80;;;4.20;99.60;;;;;;5081480;28;20891;-48
2022/01/08 04:47:34;;;;;;;2.93;1.00;;;4.20;99.50;;;;;;5076980;28;20493;-48
2022/01/08 04:50:01;;;;;;;1.60;0.93;;;4.10;99.30;;;;;;5082618;28;20496;-48
2022/01/08 04:52:27;;;;;;;1.70;0.97;;;4.10;99.40;;;;;;5081957;28;20547;-47
2022/01/08 04:54:54;;;;;;;6.23;0.83;;;4.10;99.60;;;;;;5081448;28;20480;-48
2022/01/08 04:57:22;;;;;;;2.03;1.07;;;4.10;99.70;;;;;;5075284;28;20476;-48
2022/01/08 04:59:49;;;;;;;3.40;1.10;;;4.10;99.50;;;;;;5081193;28;20505;-48
2022/01/08 05:02:16;;;;;;;3.53;0.90;;;4.10;99.70;;;;;;5079013;28;20482;-48
2022/01/08 05:04:43;;;;;;;2.33;1.40;;;4.10;99.60;;;;;;5086316;28;20983;-48
2022/01/08 05:07:10;;;;;;;3.87;1.20;;;4.00;99.40;;;;;;5081988;28;20533;-47
2022/01/08 05:09:36;;;;;;;3.87;1.87;;;4.00;99.30;;;;;;5082749;28;20565;-48
2022/01/08 05:12:04;;;;;;;2.10;1.50;;;4.10;99.60;;;;;;5078611;28;20493;-47
2022/01/08 05:14:32;;;;;;;5.10;2.20;;;4.10;99.50;;;;;;5082058;28;20884;-48
2022/01/08 05:17:00;;;;;;;2.63;2.03;;;4.10;99.40;;;;;;5070041;28;20535;-48
2022/01/08 05:19:40;;;;;;;2.17;1.70;;;4.20;99.60;;;;;;5085421;28;20488;-48
2022/01/08 05:22:07;;;;;;;10.60;1.90;;;4.20;99.60;;;;;;5081166;28;20964;-48
2022/01/08 05:24:34;;;;;;;6.30;2.10;;;4.20;99.40;;;;;;5079341;28;20599;-48
2022/01/08 05:27:03;;;;;;;3.30;2.57;;;4.20;99.50;;;;;;5077074;28;20483;-48
2022/01/08 05:29:31;;;;;;;4.27;2.30;;;4.30;99.40;;;;;;5068288;28;20973;-48
2022/01/08 05:31:58;;;;;;;5.33;2.40;;;4.30;99.20;;;;;;5085387;28;20489;-48
2022/01/08 05:34:24;;;;;;;3.30;2.13;;;4.30;99.30;;;;;;5084901;28;21089;-48
2022/01/08 05:36:51;;;;;;;2.07;1.77;;;4.30;99.30;;;;;;5071584;28;20490;-48
2022/01/08 05:39:18;;;;;;;5.00;2.13;;;4.30;99.20;;;;;;5093625;28;20491;-47
2022/01/08 05:41:45;;;;;;;5.00;2.40;;;4.30;99.10;;;;;;5075950;28;20526;-48
2022/01/08 05:44:11;;;;;;;4.00;3.00;;;4.20;99.00;;;;;;5080291;28;21160;-48
2022/01/08 05:46:44;;;;;;;5.80;3.70;;;4.30;99.20;;;;;;5075367;28;20487;-51
2022/01/08 05:49:11;;;;;;;26.40;12.83;;;4.20;98.90;;;;;;5062027;28;20798;-48
2022/01/08 05:51:38;;;;;;;3.90;2.70;;;4.20;99.00;;;;;;5080696;28;20514;-47
2022/01/08 05:54:05;;;;;;;7.70;3.77;;;4.20;99.10;;;;;;5075923;28;20479;-47
2022/01/08 05:56:31;;;;;;;6.43;3.07;;;4.20;99.10;;;;;;5072355;28;20489;-48
2022/01/08 05:58:58;;;;;;;3.97;3.67;;;4.20;99.10;;;;;;5061622;28;20535;-48
2022/01/08 06:01:25;;;;;;;5.50;3.13;;;4.20;99.10;;;;;;5093603;28;20568;-47
2022/01/08 06:03:53;;;;;;;4.67;3.00;;;4.20;99.30;;;;;;5080817;28;20537;-48
2022/01/08 06:06:20;;;;;;;9.23;3.90;;;4.20;99.30;;;;;;5081605;28;20470;-47
2022/01/08 06:08:46;;;;;;;4.83;3.30;;;4.20;99.00;;;;;;5084629;28;20523;-48
2022/01/08 06:11:13;;;;;;;4.53;3.77;;;4.20;98.80;;;;;;5079453;28;20486;-48
2022/01/08 06:13:40;;;;;;;6.47;3.60;;;4.10;98.60;;;;;;5081824;28;20941;-48
2022/01/08 06:16:06;;;;;;;3.43;3.13;;;4.10;98.60;;;;;;5072835;28;20474;-47
2022/01/08 06:18:33;;;;;;;18.17;4.13;;;4.10;98.50;;;;;;5066597;28;20535;-47
2022/01/08 06:21:01;;;;;;;7.07;3.80;;;4.10;98.40;;;;;;5091151;28;20536;-48
2022/01/08 06:23:28;;;;;;;9.77;3.00;;;4.00;98.20;;;;;;5080013;28;20474;-48
2022/01/08 06:25:55;;;;;;;5.23;3.50;;;4.00;98.50;;;;;;5079909;28;20483;-48
2022/01/08 06:28:21;;;;;;;6.60;3.30;;;3.90;98.50;;;;;;5067553;28;20482;-48
2022/01/08 06:30:49;;;;;;;9.40;4.63;;;3.80;98.50;;;;;;5084892;28;20484;-48
2022/01/08 06:33:16;;;;;;;4.73;3.13;;;3.80;98.50;;;;;;5091899;27;21162;-48
2022/01/08 06:35:42;;;;;;;10.03;4.00;;;3.70;98.50;;;;;;5084588;28;20480;-48
2022/01/08 06:38:11;;;;;;;6.33;3.20;;;3.60;98.40;;;;;;5076793;28;20476;-48
2022/01/08 06:40:38;;;;;;;11.40;3.87;;;3.60;98.40;;;;;;5074275;28;20486;-48
2022/01/08 06:43:04;;;;;;;4.80;3.20;;;3.50;98.30;;;;;;5080335;28;20482;-48
2022/01/08 06:45:31;;;;;;;7.00;3.73;;;3.50;98.40;;;;;;5080026;28;20478;-48
2022/01/08 06:47:58;;;;;;;7.87;3.97;;;3.50;98.40;;;;;;5069469;28;20482;-48
2022/01/08 06:50:27;;;;;;;12.90;4.67;;;3.50;98.40;;;;;;5086100;28;21011;-47
2022/01/08 06:52:54;;;;;;;10.30;4.23;;;3.60;98.30;;;;;;5072627;28;21032;-47
2022/01/08 06:55:22;;;;;;;4.03;3.43;;;3.60;98.30;;;;;;5073446;28;20481;-47
2022/01/08 06:57:49;;;;;;;9.00;4.40;;;3.60;98.30;;;;;;5077979;28;20467;-48
2022/01/08 07:00:16;;;;;;;5.53;4.07;;;3.60;98.30;;;;;;5077155;28;21047;-48
2022/01/08 07:02:42;;;;;;;4.80;4.30;;;3.70;98.40;;;;;;5072055;28;20489;-48
2022/01/08 07:05:10;;;;;;;5.67;3.50;;;3.60;98.20;;;;;;5090689;28;20475;-48
2022/01/08 07:07:36;;;;;;;7.00;3.60;;;3.60;98.30;;;;;;5079407;28;20471;-48
2022/01/08 07:10:04;;;;;;;5.60;3.77;;;3.70;98.60;;;;;;5078581;28;20735;-48
2022/01/08 07:12:32;;;;;;;6.77;2.97;;;3.60;98.40;;;;;;5079661;27;20479;-48
2022/01/08 07:14:58;;;;;;;5.57;3.73;;;3.60;98.30;;;;;;5080566;28;20535;-48
2022/01/08 07:17:25;;;;;;;15.57;3.87;;;3.60;98.40;;;;;;5068716;28;20884;-49
2022/01/08 07:19:52;;;;;;;8.20;4.27;;;3.60;98.60;;;;;;5077495;28;21713;-47
2022/01/08 07:22:18;;;;;;;15.73;4.10;;;3.60;98.70;;;;;;5087894;27;20548;-47
2022/01/08 07:24:45;;;;;;;6.73;3.77;;;3.70;98.70;;;;;;5074416;28;20496;-47
2022/01/08 07:27:12;;;;;;;4.77;3.70;;;3.70;98.60;;;;;;5079770;28;20843;-47
2022/01/08 07:29:41;;;;;;;7.83;4.20;;;3.70;98.60;;;;;;5078942;28;20586;-48
2022/01/08 07:32:08;;;;;;;8.20;4.67;;;3.70;98.60;;;;;;5079976;28;20474;-50
2022/01/08 07:34:34;;;;;;;8.23;3.63;;;3.70;98.80;;;;;;5081144;28;20473;-47
2022/01/08 07:37:01;;;;;;;10.20;4.87;;;3.70;98.70;;;;;;5077524;28;20479;-48
2022/01/08 07:39:28;;;;;;;4.17;3.13;;;3.70;98.70;;;;;;5078400;28;20579;-48
2022/01/08 07:41:54;;;;;;;4.77;3.23;;;3.70;98.80;;;;;;5072873;28;20545;-48
2022/01/08 07:44:21;;;;;;;12.13;3.90;;;3.80;98.80;;;;;;5079188;28;20478;-48
2022/01/08 07:46:49;;;;;;;25.23;5.10;;;3.80;98.70;;;;;;5078790;28;20872;-50
2022/01/08 07:49:16;;;;;;;9.97;3.63;;;3.80;98.70;;;;;;5075273;28;20541;-48
2022/01/08 07:51:43;;;;;;;10.97;3.87;;;3.80;98.70;;;;;;5077746;28;20487;-48
2022/01/08 07:54:10;;;;;;;9.80;3.90;;;3.80;98.80;;;;;;5074999;28;20471;-48
2022/01/08 07:56:37;;;;;;;9.73;4.07;;;3.80;98.80;;;;;;5080975;28;20902;-48
2022/01/08 07:59:04;;;;;;;8.50;3.70;;;3.80;98.90;;;;;;5073304;28;20487;-47
2022/01/08 08:01:30;;;;;;;15.47;4.97;;;3.80;98.90;;;;;;5092996;28;20536;-48
2022/01/08 08:03:58;;;;;;;8.50;3.73;;;3.80;98.90;;;;;;5077894;28;21016;-48
2022/01/08 08:06:25;;;;;;;8.67;4.00;;;3.80;99.00;;;;;;5084329;28;20519;-48
2022/01/08 08:08:52;;;;;;;9.00;4.37;;;3.80;99.10;;;;;;5087361;28;20888;-47
2022/01/08 08:11:18;;;;;;;7.90;3.43;;;3.70;99.00;;;;;;5082426;28;20967;-48
2022/01/08 08:13:45;;;;;;;4.80;4.20;;;3.70;99.20;;;;;;5079136;28;20474;-48
2022/01/08 08:16:12;;;;;;;8.70;4.07;;;3.60;99.30;;;;;;5078699;28;20839;-48
2022/01/08 08:18:38;;;;;;;12.30;4.90;;;3.50;99.20;;;;;;5083313;27;20481;-48
2022/01/08 08:21:07;;;;;;;6.67;4.60;;;3.40;99.50;;;;;;5103554;27;20846;-48
2022/01/08 08:23:33;;;;;;;7.37;2.93;;;3.30;99.50;;;;;;5083944;27;20542;-48
2022/01/08 08:26:00;;;;;;;4.40;3.20;;;3.50;99.70;;;;;;5083449;28;21128;-47
2022/01/08 08:28:27;;;;;;;3.13;2.83;;;3.50;99.60;;;;;;5081705;28;21406;-47
2022/01/08 08:30:54;;;;;;;4.30;3.53;;;3.60;99.60;;;;;;5079072;28;20496;-48
2022/01/08 08:33:21;;;;;;;5.63;2.43;;;3.60;99.60;;;;;;5080509;28;20475;-51
2022/01/08 08:35:47;;;;;;;5.60;3.40;;;3.60;99.50;;;;;;5096918;28;20868;-48
2022/01/08 08:38:16;;;;;;;7.70;3.73;;;3.60;99.70;;;;;;5070428;28;20490;-47
2022/01/08 08:40:42;;;;;;;3.53;3.23;;;3.60;99.60;;;;;;5075844;28;20530;-48
2022/01/08 08:43:09;;;;;;;16.20;4.60;;;3.60;99.70;;;;;;5068940;28;20485;-47
2022/01/08 08:45:36;;;;;;;8.90;3.63;;;3.60;99.70;;;;;;5068847;28;20905;-47
2022/01/08 08:48:03;;;;;;;9.70;3.70;;;3.70;99.90;;;;;;5071561;27;20486;-48
2022/01/08 08:50:29;;;;;;;5.67;3.37;;;3.70;99.90;;;;;;5094562;27;20512;-48
2022/01/08 08:52:56;;;;;;;3.97;2.97;;;3.70;99.80;;;;;;5069284;28;20482;-47
2022/01/08 08:55:24;;;;;;;4.53;2.47;;;3.70;99.90;;;;;;5076697;28;20482;-48
2022/01/08 08:57:52;;;;;;;6.27;4.27;;;3.60;99.50;;;;;;5077396;28;20826;-48
2022/01/08 09:00:19;;;;;;;9.33;3.10;;;3.60;99.90;;;;;;5073043;28;20498;-48
2022/01/08 09:02:45;;;;;;;4.00;2.63;;;3.50;99.90;;;;;;5067470;28;20575;-49
2022/01/08 09:05:12;;;;;;;11.37;2.90;;;3.60;99.90;;;;;;5082627;28;20868;-48
2022/01/08 09:07:39;;;;;;;13.10;4.20;;;3.60;99.90;;;;;;5076899;28;20555;-48
2022/01/08 09:10:09;;;;;;;6.00;4.53;;;3.60;99.90;;;;;;5074320;28;20492;-48
2022/01/08 09:12:38;;;;;;;8.80;3.63;;;3.60;99.90;;;;;;5085320;28;20807;-47
2022/01/08 09:15:05;;;;;;;4.67;2.80;;;3.50;99.90;;;;;;5070221;28;21097;-48
2022/01/08 09:17:33;;;;;;;3.97;2.23;;;3.80;99.90;;;;;;5081386;28;20482;-48
2022/01/08 09:19:59;;;;;;;4.93;2.83;;;4.10;99.90;;;;;;5084465;28;20999;-48
2022/01/08 09:22:26;;;;;;;3.17;2.80;;;4.30;99.70;;;;;;5075325;28;20549;-48
2022/01/08 09:24:54;;;;;;;4.93;3.13;;;4.40;99.90;;;;;;5079340;28;20497;-48
2022/01/08 09:27:22;;;;;;;8.60;4.37;;;4.60;99.60;;;;;;5077510;28;20487;-49
2022/01/08 09:29:51;;;;;;;4.93;2.13;;;4.60;99.40;;;;;;5074197;28;20493;-49
2022/01/08 09:32:18;;;;;;;9.13;3.70;;;4.60;99.30;;;;;;5079329;28;20479;-49
2022/01/08 09:34:45;;;;;;;2.93;2.47;;;4.60;99.40;;;;;;5071109;28;20481;-50
2022/01/08 09:37:13;;;;;;;4.37;2.30;;;4.50;99.10;;;;;;5080277;27;20481;-48
2022/01/08 09:39:40;;;;;;;4.20;3.20;;;4.40;99.10;;;;;;5081531;27;21011;-48
2022/01/08 09:42:08;;;;;;;6.20;3.93;;;4.40;99.10;;;;;;5066597;28;20485;-48
2022/01/08 09:44:37;;;;;;;3.30;3.00;;;4.30;99.00;;;;;;5087333;28;20522;-48
2022/01/08 09:47:05;;;;;;;6.27;4.37;;;4.20;99.30;;;;;;5070944;28;20488;-48
2022/01/08 09:49:32;;;;;;;9.20;4.00;;;4.20;99.60;;;;;;5076348;28;20478;-49
2022/01/08 09:52:00;;;;;;;4.03;3.07;;;4.10;99.50;;;;;;5078665;28;20890;-48
2022/01/08 09:54:27;;;;;;;5.03;4.50;;;4.10;99.60;;;;;;5088872;28;21125;-48
2022/01/08 09:56:54;;;;;;;8.00;4.70;;;4.10;99.70;;;;;;5066181;28;20480;-48
2022/01/08 09:59:21;;;;;;;13.53;5.93;;;4.10;99.90;;;;;;5072155;28;20497;-49
2022/01/08 10:01:54;;;;;;;9.13;5.10;;;4.00;99.90;;;;;;5090770;27;21618;-48
2022/01/08 10:04:26;;;;;;;3.13;2.40;;;4.00;99.90;;;;;;5099400;27;20479;-48
2022/01/08 10:07:13;;;;;;;3.83;2.90;;;3.90;99.70;;;;;;5077283;28;20493;-48
2022/01/08 10:09:58;;;;;;;9.30;3.83;;;3.90;99.90;;;;;;5064170;28;20486;-48
2022/01/08 10:12:36;;;;;;;7.20;4.97;;;4.00;99.90;;;;;;5067793;28;20500;-48
2022/01/08 10:17:48;;;;;;;7.83;5.00;;;4.00;99.90;;;;;;5067346;28;20499;-49
2022/01/08 10:20:27;;;;;;;6.20;4.80;;;4.10;99.90;;;;;;5068837;28;20487;-48
2022/01/08 10:22:59;;;;;;;4.83;2.80;;;4.20;99.90;;;;;;5082017;28;20487;-48
2022/01/08 10:25:25;;;;;;;4.47;4.07;;;4.30;99.90;;;;;;5063974;28;21276;-48
2022/01/08 10:27:52;;;;;;;4.73;3.50;;;4.30;99.90;;;;;;5073071;28;20538;-48
2022/01/08 10:30:25;;;;;;;3.87;2.70;;;4.20;99.60;;;;;;5073078;28;20540;-48
2022/01/08 10:32:56;;;;;;;3.73;2.33;;;4.20;99.90;;;;;;5056080;28;21230;-49
2022/01/08 10:35:46;;;;;;;3.47;3.10;;;4.20;99.90;;;;;;5054813;28;20585;-50
2022/01/08 10:38:13;;;;;;;4.97;3.53;;;4.20;99.90;;;;;;5060124;28;20491;-48
2022/01/08 10:40:40;;;;;;;6.90;3.63;;;4.00;99.90;;;;;;5067941;27;20473;-48
2022/01/08 10:43:21;;;;;;;4.20;2.60;;;3.90;99.90;;;;;;5063703;28;20918;-48
2022/01/08 10:45:48;;;;;;;5.60;3.03;;;3.80;99.90;;;;;;5057851;28;20988;-48
2022/01/08 10:48:25;;;;;;;2.77;2.57;;;3.80;99.90;;;;;;5056159;28;20480;-48
2022/01/08 10:50:54;;;;;;;5.67;4.50;;;3.90;99.90;;;;;;5064852;28;20552;-48
2022/01/08 10:53:20;;;;;;;3.33;2.17;;;3.80;99.90;;;;;;5058408;28;20501;-49
2022/01/08 10:55:47;;;;;;;7.53;4.50;;;3.80;99.90;;;;;;5055202;28;20506;-49
2022/01/08 10:58:16;;;;;;;7.00;3.90;;;3.90;99.90;;;;;;5055532;28;20480;-48
2022/01/08 11:00:42;;;;;;;8.60;4.80;;;4.10;99.90;;;;;;5059736;28;20853;-48
2022/01/08 11:03:09;;;;;;;3.03;2.17;;;4.10;99.90;;;;;;5061326;28;20482;-48
2022/01/08 11:06:02;;;;;;;2.87;2.50;;;4.10;99.90;;;;;;5058231;28;20476;-48
2022/01/08 11:08:29;;;;;;;5.87;4.13;;;4.10;99.90;;;;;;5045758;28;20460;-48
2022/01/08 11:10:55;;;;;;;2.80;1.90;;;4.10;99.60;;;;;;5057917;28;20484;-47
2022/01/08 11:13:25;;;;;;;7.70;5.63;;;4.10;99.80;;;;;;5068039;28;21293;-48
2022/01/08 11:15:52;;;;;;;6.30;2.90;;;4.00;99.60;;;;;;5074383;27;20466;-48
2022/01/08 11:18:19;;;;;;;5.40;4.90;;;4.10;99.80;;;;;;5056401;28;20496;-48
2022/01/08 11:20:47;;;;;;;11.53;3.83;;;4.10;99.50;;;;;;5057218;28;20511;-49
2022/01/08 11:23:22;;;;;;;8.00;3.87;;;4.20;99.90;;;;;;5056297;28;20538;-49
2022/01/08 11:25:51;;;;;;;5.00;3.30;;;4.20;99.90;;;;;;5052969;28;21069;-48
2022/01/08 11:28:19;;;;;;;3.33;2.60;;;4.30;99.90;;;;;;5053387;28;20485;-48
2022/01/08 11:30:48;;;;;;;3.93;3.10;;;4.20;99.80;;;;;;5057484;28;20472;-49
2022/01/08 11:33:19;;;;;;;2.00;1.23;;;4.20;99.60;;;;;;5057559;28;20914;-48
2022/01/08 11:35:47;;;;;;;3.17;2.67;;;4.30;99.90;;;;;;5045132;28;20472;-48
2022/01/08 11:38:19;;;;;;;2.00;1.80;;;4.30;99.80;;;;;;5049193;28;21888;-48
2022/01/08 11:40:47;;;;;;;1.90;1.37;;;4.20;99.40;;;;;;5072682;28;20475;-48
2022/01/08 11:43:17;;;;;;;4.10;2.10;;;4.30;99.90;;;;;;5048751;28;20585;-47
2022/01/08 11:45:48;;;;;;;4.83;2.70;;;4.40;99.60;;;;;;5062140;28;20487;-47
2022/01/08 11:48:16;;;;;;;2.80;1.70;;;4.40;99.80;;;;;;5052200;28;20483;-48
2022/01/08 11:50:51;;;;;;;2.03;1.30;;;4.40;99.90;;;;;;5062407;28;20488;-48
2022/01/08 11:53:21;;;;;;;2.13;1.50;;;4.40;99.60;;;;;;5058801;28;20929;-47
2022/01/08 11:55:51;;;;;;;3.90;3.00;;;4.40;99.60;;;;;;5056659;28;20881;-47
2022/01/08 11:58:21;;;;;;;2.07;1.50;;;4.40;99.30;;;;;;5049881;28;20487;-48
2022/01/08 12:00:53;;;;;;;5.00;1.17;;;4.40;99.30;;;;;;5055456;28;21099;-48
2022/01/08 12:03:24;;;;;;;8.03;2.07;;;4.50;99.00;;;;;;5058936;28;20479;-48
2022/01/08 12:05:51;;;;;;;1.60;1.20;;;4.50;99.00;;;;;;5059941;28;20540;-48
2022/01/08 12:08:20;;;;;;;4.00;1.87;;;4.70;99.40;;;;;;5062214;28;20487;-48
2022/01/08 12:10:59;;;;;;;2.53;1.27;;;4.70;99.20;;;;;;5057332;28;20964;-48
2022/01/08 12:13:47;;;;;;;1.70;1.30;;;4.70;98.70;;;;;;5061135;28;20587;-48
2022/01/08 12:16:35;;;;;;;8.80;2.37;;;4.70;98.50;;;;;;5073250;27;20480;-48
2022/01/08 12:19:03;;;;;;;5.73;1.00;;;4.60;98.60;;;;;;5054664;28;20475;-48
2022/01/08 12:21:32;;;;;;;1.80;1.10;;;4.70;98.50;;;;;;5064826;28;20484;-48
2022/01/08 12:24:37;;;;;;;3.60;1.20;;;4.70;98.80;;;;;;5051896;28;20484;-49
2022/01/08 12:27:21;;;;;;;1.80;0.97;;;4.70;98.90;;;;;;5045658;28;20503;-48
2022/01/08 12:29:48;;;;;;;1.80;1.07;;;4.60;98.40;;;;;;5072219;27;20484;-48
2022/01/08 12:32:28;;;;;;;4.47;1.50;;;4.70;98.60;;;;;;5069418;27;20487;-49
2022/01/08 12:35:01;;;;;;;3.33;1.50;;;4.60;98.10;;;;;;5061086;28;20518;-48
2022/01/08 12:37:37;;;;;;;2.73;1.07;;;4.60;97.80;;;;;;5046097;28;21040;-49
2022/01/08 12:40:07;;;;;;;2.77;1.07;;;4.60;97.90;;;;;;5052366;28;20577;-49
2022/01/08 12:42:39;;;;;;;2.60;1.30;;;4.70;98.10;;;;;;5051314;28;20488;-49
2022/01/08 12:45:12;;;;;;;6.20;1.60;;;4.80;98.40;;;;;;5054561;28;20484;-49
2022/01/08 12:47:44;;;;;;;4.47;2.33;;;4.70;98.50;;;;;;5053841;28;20480;-49
2022/01/08 12:50:21;;;;;;;3.60;0.90;;;4.60;98.10;;;;;;5047473;28;20489;-49
2022/01/08 12:53:14;;;;;;;5.63;1.30;;;4.60;98.20;;;;;;5051258;28;21062;-49
2022/01/08 12:55:44;;;;;;;10.63;2.10;;;4.50;98.40;;;;;;5054852;28;20545;-48
2022/01/08 12:58:15;;;;;;;5.73;1.50;;;4.60;98.40;;;;;;5048161;28;21001;-49
2022/01/08 13:00:56;;;;;;;4.43;1.10;;;4.70;98.50;;;;;;5047939;28;20537;-48
2022/01/08 13:03:25;;;;;;;2.10;1.10;;;4.60;98.50;;;;;;5054196;27;20719;-48
2022/01/08 13:05:52;;;;;;;1.97;1.20;;;4.80;98.10;;;;;;5068092;27;20483;-49
2022/01/08 13:08:23;;;;;;;4.47;2.80;;;4.80;98.20;;;;;;5060837;28;20479;-48
2022/01/08 13:11:00;;;;;;;2.57;1.03;;;4.60;98.10;;;;;;5060059;28;20478;-49
2022/01/08 13:13:27;;;;;;;3.93;1.60;;;4.70;98.40;;;;;;5059571;28;20511;-48
2022/01/08 13:15:54;;;;;;;5.73;1.83;;;4.80;98.40;;;;;;5057834;28;21535;-48
2022/01/08 13:18:24;;;;;;;1.70;1.23;;;4.80;98.20;;;;;;5048882;28;21232;-49
2022/01/08 13:21:02;;;;;;;3.53;2.20;;;4.80;98.30;;;;;;5072074;28;20952;-48